createdAt,value
2019-02-27T00:04:02.516Z,10.30
2019-02-27T00:06:50.636Z,10.30
2019-02-27T00:09:38.422Z,10.30
2019-02-27T00:12:26.528Z,10.30
2019-02-27T00:15:07.431Z,10.30
2019-02-27T00:17:51.160Z,10.20
2019-02-27T00:20:30.793Z,10.30
2019-02-27T00:23:11.548Z,10.20
2019-02-27T00:25:52.405Z,10.10
2019-02-27T00:28:33.335Z,10.20
2019-02-27T00:31:14.040Z,10.20
2019-02-27T00:33:59.478Z,10.20
2019-02-27T00:36:37.409Z,10.20
2019-02-27T00:42:00.312Z,10.00
2019-02-27T00:44:41.566Z,10.00
2019-02-27T00:47:21.948Z,10.00
2019-02-27T00:50:05.787Z,10.00
2019-02-27T00:52:45.011Z,9.90
2019-02-27T00:55:25.846Z,9.90
2019-02-27T00:58:06.881Z,10.00
2019-02-27T01:00:47.621Z,9.80
2019-02-27T01:03:28.657Z,9.80
2019-02-27T01:06:08.854Z,9.90
2019-02-27T01:08:49.848Z,9.90
2019-02-27T01:11:30.513Z,9.90
2019-02-27T01:14:11.536Z,9.80
2019-02-27T01:16:52.293Z,9.90
2019-02-27T01:19:32.974Z,9.80
2019-02-27T01:22:01.407Z,9.70
2019-02-27T01:24:50.119Z,9.80
2019-02-27T01:27:19.353Z,9.70
2019-02-27T01:30:26.440Z,9.70
2019-02-27T01:33:14.195Z,9.70
2019-02-27T01:36:01.948Z,9.60
2019-02-27T01:38:49.962Z,9.50
2019-02-27T01:41:37.728Z,9.50
2019-02-27T01:44:25.549Z,9.30
2019-02-27T01:47:13.549Z,9.30
2019-02-27T01:50:01.290Z,9.30
2019-02-27T01:52:49.060Z,9.40
2019-02-27T01:55:36.822Z,9.40
2019-02-27T01:58:24.576Z,9.40
2019-02-27T02:01:12.320Z,9.60
2019-02-27T02:04:00.076Z,9.60
2019-02-27T02:06:47.846Z,9.50
2019-02-27T02:09:36.296Z,9.40
2019-02-27T02:12:24.125Z,9.40
2019-02-27T02:15:32.608Z,9.30
2019-02-27T02:18:14.483Z,9.20
2019-02-27T02:20:58.044Z,9.10
2019-02-27T02:23:38.109Z,9.10
2019-02-27T02:26:18.873Z,9.10
2019-02-27T02:28:59.567Z,9.20
2019-02-27T02:31:41.684Z,9.20
2019-02-27T02:34:23.128Z,9.10
2019-02-27T02:37:03.944Z,8.90
2019-02-27T02:39:44.794Z,8.90
2019-02-27T02:42:25.901Z,8.90
2019-02-27T02:45:06.857Z,8.90
2019-02-27T02:47:48.247Z,8.90
2019-02-27T02:50:28.787Z,9.00
2019-02-27T02:53:09.593Z,9.00
2019-02-27T02:55:50.083Z,9.00
2019-02-27T02:58:31.404Z,8.90
2019-02-27T03:01:15.161Z,8.90
2019-02-27T03:03:54.020Z,8.80
2019-02-27T03:06:36.022Z,8.80
2019-02-27T03:09:16.727Z,8.90
2019-02-27T03:11:57.534Z,8.80
2019-02-27T03:14:38.464Z,8.90
2019-02-27T03:17:19.348Z,8.70
2019-02-27T03:20:00.458Z,8.70
2019-02-27T03:22:41.850Z,8.60
2019-02-27T03:25:22.850Z,8.60
2019-02-27T03:28:05.088Z,8.50
2019-02-27T03:30:45.742Z,8.60
2019-02-27T03:33:27.383Z,8.60
2019-02-27T03:36:07.721Z,8.50
2019-02-27T03:38:48.468Z,8.40
2019-02-27T03:41:29.449Z,8.30
2019-02-27T03:44:10.750Z,8.50
2019-02-27T03:46:51.346Z,8.60
2019-02-27T03:49:39.713Z,8.60
2019-02-27T03:52:15.160Z,8.50
2019-02-27T03:54:58.039Z,8.50
2019-02-27T03:57:37.952Z,8.60
2019-02-27T04:00:19.363Z,8.60
2019-02-27T04:02:59.899Z,8.70
2019-02-27T04:05:42.156Z,8.60
2019-02-27T04:08:23.585Z,8.60
2019-02-27T04:11:05.903Z,8.50
2019-02-27T04:13:47.099Z,8.50
2019-02-27T04:16:29.350Z,8.50
2019-02-27T04:19:10.377Z,8.60
2019-02-27T04:21:51.149Z,8.60
2019-02-27T04:24:31.893Z,8.60
2019-02-27T04:27:12.759Z,8.50
2019-02-27T04:29:53.459Z,8.40
2019-02-27T04:32:34.405Z,8.50
2019-02-27T04:35:15.434Z,8.60
2019-02-27T04:37:55.837Z,8.50
2019-02-27T04:40:36.805Z,8.40
2019-02-27T04:43:17.780Z,8.40
2019-02-27T04:45:58.364Z,8.40
2019-02-27T04:48:39.142Z,8.40
2019-02-27T04:51:20.084Z,8.30
2019-02-27T04:54:00.660Z,8.40
2019-02-27T04:56:41.548Z,8.30
2019-02-27T04:59:22.285Z,8.30
2019-02-27T05:02:03.276Z,8.40
2019-02-27T05:04:44.064Z,8.30
2019-02-27T05:07:25.108Z,8.40
2019-02-27T05:10:07.276Z,8.30
2019-02-27T05:12:49.388Z,8.40
2019-02-27T05:15:29.872Z,8.40
2019-02-27T05:18:10.494Z,8.30
2019-02-27T05:20:51.555Z,8.30
2019-02-27T05:23:33.588Z,8.20
2019-02-27T05:26:14.593Z,8.10
2019-02-27T05:28:55.568Z,7.90
2019-02-27T05:31:36.642Z,7.80
2019-02-27T05:34:17.450Z,7.80
2019-02-27T05:36:58.400Z,7.80
2019-02-27T05:39:38.965Z,7.90
2019-02-27T05:42:19.553Z,7.80
2019-02-27T05:45:00.463Z,8.00
2019-02-27T05:47:44.729Z,8.00
2019-02-27T05:50:23.907Z,7.90
2019-02-27T05:53:04.448Z,7.90
2019-02-27T05:55:45.744Z,7.80
2019-02-27T05:58:26.805Z,7.80
2019-02-27T06:01:07.586Z,7.90
2019-02-27T06:03:49.416Z,7.90
2019-02-27T06:06:30.692Z,8.00
2019-02-27T06:09:11.084Z,8.00
2019-02-27T06:11:51.968Z,8.00
2019-02-27T06:14:32.924Z,8.00
2019-02-27T06:17:13.773Z,8.00
2019-02-27T06:19:54.893Z,8.20
2019-02-27T06:22:36.116Z,8.10
2019-02-27T06:25:44.592Z,8.10
2019-02-27T06:28:32.352Z,8.10
2019-02-27T06:31:02.582Z,8.00
2019-02-27T06:33:30.908Z,8.10
2019-02-27T06:36:18.684Z,8.10
2019-02-27T06:39:08.637Z,8.20
2019-02-27T06:41:56.325Z,8.10
2019-02-27T06:44:44.088Z,8.10
2019-02-27T06:47:33.045Z,8.20
2019-02-27T06:50:25.177Z,8.30
2019-02-27T06:53:15.569Z,8.30
2019-02-27T06:56:03.403Z,8.20
2019-02-27T06:58:50.746Z,8.30
2019-02-27T07:01:39.835Z,8.30
2019-02-27T07:04:27.642Z,8.30
2019-02-27T07:07:15.384Z,8.30
2019-02-27T07:10:04.147Z,8.40
2019-02-27T07:12:54.444Z,8.40
2019-02-27T07:15:41.409Z,8.30
2019-02-27T07:18:22.422Z,8.30
2019-02-27T07:21:03.669Z,8.40
2019-02-27T07:23:44.585Z,8.40
2019-02-27T07:26:25.573Z,8.40
2019-02-27T07:29:06.354Z,8.40
2019-02-27T07:31:49.574Z,8.40
2019-02-27T07:34:29.952Z,8.40
2019-02-27T07:37:12.940Z,8.50
2019-02-27T07:39:53.162Z,8.50
2019-02-27T07:42:34.000Z,8.50
2019-02-27T07:45:14.950Z,8.60
2019-02-27T07:47:55.714Z,8.70
2019-02-27T07:50:36.625Z,8.60
2019-02-27T07:53:18.202Z,8.80
2019-02-27T07:55:47.438Z,8.90
2019-02-27T07:58:36.312Z,8.90
2019-02-27T08:01:24.254Z,9.00
2019-02-27T08:04:13.542Z,9.10
2019-02-27T08:07:01.342Z,9.00
2019-02-27T08:09:49.109Z,9.00
2019-02-27T08:12:36.897Z,9.00
2019-02-27T08:15:25.507Z,9.00
2019-02-27T08:18:14.194Z,9.10
2019-02-27T08:21:02.018Z,9.20
2019-02-27T08:23:49.809Z,9.30
2019-02-27T08:26:37.598Z,9.30
2019-02-27T08:29:25.413Z,9.50
2019-02-27T08:32:13.192Z,9.60
2019-02-27T08:35:01.282Z,9.70
2019-02-27T08:37:49.048Z,9.70
2019-02-27T08:40:36.832Z,9.60
2019-02-27T08:43:24.602Z,9.70
2019-02-27T08:46:12.400Z,9.90
2019-02-27T08:49:00.485Z,10.00
2019-02-27T08:51:48.276Z,10.00
2019-02-27T08:54:31.959Z,10.20
2019-02-27T08:57:11.113Z,10.30
2019-02-27T08:59:52.002Z,10.50
2019-02-27T09:02:32.417Z,10.50
2019-02-27T09:05:13.134Z,10.50
2019-02-27T09:07:53.977Z,10.50
2019-02-27T09:10:34.901Z,10.60
2019-02-27T09:13:15.826Z,10.60
2019-02-27T09:15:56.378Z,10.80
2019-02-27T09:18:37.255Z,11.00
2019-02-27T09:21:17.921Z,11.00
2019-02-27T09:23:58.744Z,11.00
2019-02-27T09:26:39.918Z,11.10
2019-02-27T09:29:20.602Z,11.20
2019-02-27T09:32:01.601Z,11.10
2019-02-27T09:34:42.142Z,11.40
2019-02-27T09:37:23.193Z,11.50
2019-02-27T09:40:05.726Z,11.50
2019-02-27T09:42:46.626Z,11.80
2019-02-27T09:45:27.658Z,11.80
2019-02-27T09:48:08.930Z,11.80
2019-02-27T09:50:49.895Z,11.80
2019-02-27T09:53:30.590Z,12.00
2019-02-27T09:56:11.724Z,12.10
2019-02-27T09:58:52.226Z,12.10
2019-02-27T10:01:35.195Z,12.30
2019-02-27T10:04:15.587Z,12.20
2019-02-27T10:06:56.413Z,12.30
2019-02-27T10:09:37.454Z,12.30
2019-02-27T10:12:18.578Z,12.20
2019-02-27T10:14:59.449Z,12.40
2019-02-27T10:17:41.129Z,12.70
2019-02-27T10:20:22.710Z,12.60
2019-02-27T10:23:03.414Z,12.60
2019-02-27T10:25:44.375Z,12.90
2019-02-27T10:28:25.196Z,12.90
2019-02-27T10:31:06.603Z,12.90
2019-02-27T10:33:47.281Z,12.80
2019-02-27T10:36:28.211Z,13.10
2019-02-27T10:39:08.464Z,13.00
2019-02-27T10:41:50.532Z,12.90
2019-02-27T10:44:33.926Z,13.10
2019-02-27T10:47:14.444Z,13.10
2019-02-27T10:49:55.234Z,13.30
2019-02-27T10:52:36.286Z,13.40
2019-02-27T10:55:17.045Z,13.40
2019-02-27T10:57:57.527Z,13.50
2019-02-27T11:00:37.956Z,13.70
2019-02-27T11:03:19.063Z,14.20
2019-02-27T11:05:59.672Z,14.10
2019-02-27T11:08:40.246Z,14.00
2019-02-27T11:11:21.085Z,14.00
2019-02-27T11:14:02.028Z,14.50
2019-02-27T11:16:42.560Z,14.60
2019-02-27T11:19:23.327Z,14.90
2019-02-27T11:22:04.563Z,14.90
2019-02-27T11:24:49.256Z,14.90
2019-02-27T11:27:27.858Z,15.20
2019-02-27T11:30:08.603Z,15.20
2019-02-27T11:32:49.253Z,15.30
2019-02-27T11:35:30.564Z,15.70
2019-02-27T11:38:10.913Z,15.70
2019-02-27T11:40:51.758Z,15.70
2019-02-27T11:43:32.775Z,16.20
2019-02-27T11:46:13.103Z,16.10
2019-02-27T11:48:54.066Z,16.00
2019-02-27T11:51:34.733Z,16.10
2019-02-27T11:54:15.553Z,16.50
2019-02-27T11:56:57.044Z,16.60
2019-02-27T11:59:38.371Z,16.10
2019-02-27T12:02:26.639Z,16.00
2019-02-27T12:05:02.565Z,15.80
2019-02-27T12:07:43.381Z,16.30
2019-02-27T12:10:23.941Z,15.90
2019-02-27T12:13:05.009Z,15.90
2019-02-27T12:15:46.408Z,15.90
2019-02-27T12:18:26.653Z,16.40
2019-02-27T12:21:07.433Z,16.30
2019-02-27T12:23:47.942Z,16.30
2019-02-27T12:26:28.515Z,16.40
2019-02-27T12:29:09.866Z,16.60
2019-02-27T12:31:50.226Z,16.50
2019-02-27T12:34:30.561Z,16.70
2019-02-27T12:37:19.252Z,17.20
2019-02-27T12:39:53.731Z,17.40
2019-02-27T12:42:37.376Z,17.40
2019-02-27T12:45:16.987Z,17.20
2019-02-27T12:47:57.718Z,17.60
2019-02-27T12:50:38.237Z,18.10
2019-02-27T12:53:21.640Z,17.90
2019-02-27T12:56:01.608Z,17.50
2019-02-27T12:58:42.642Z,17.30
2019-02-27T13:01:23.490Z,17.40
2019-02-27T13:04:04.211Z,17.80
2019-02-27T13:06:45.206Z,18.50
2019-02-27T13:09:25.562Z,17.50
2019-02-27T13:12:06.528Z,17.30
2019-02-27T13:14:47.282Z,16.60
2019-02-27T13:17:27.971Z,16.70
2019-02-27T13:20:09.080Z,17.00
2019-02-27T13:22:51.832Z,16.40
2019-02-27T13:25:32.374Z,16.50
2019-02-27T13:28:14.661Z,16.50
2019-02-27T13:30:56.034Z,16.90
2019-02-27T13:33:38.758Z,16.40
2019-02-27T13:36:19.722Z,16.20
2019-02-27T13:39:01.126Z,16.10
2019-02-27T13:41:42.464Z,16.00
2019-02-27T13:44:23.605Z,16.00
2019-02-27T13:47:04.671Z,16.00
2019-02-27T13:49:47.329Z,16.00
2019-02-27T13:52:29.106Z,16.00
2019-02-27T13:55:11.165Z,16.10
2019-02-27T13:57:53.224Z,16.30
2019-02-27T14:00:34.029Z,16.10
2019-02-27T14:03:14.446Z,17.00
2019-02-27T14:05:55.702Z,17.10
2019-02-27T14:11:35.398Z,16.50
2019-02-27T14:14:17.662Z,17.50
2019-02-27T14:16:58.644Z,17.50
2019-02-27T14:19:39.342Z,16.80
2019-02-27T14:22:19.958Z,16.30
2019-02-27T14:25:00.911Z,16.90
2019-02-27T14:27:41.552Z,17.00
2019-02-27T14:30:22.278Z,16.50
2019-02-27T14:33:03.084Z,16.20
2019-02-27T14:35:44.158Z,17.10
2019-02-27T14:38:24.641Z,17.30
2019-02-27T14:41:05.217Z,17.10
2019-02-27T14:43:45.575Z,17.10
2019-02-27T14:46:26.250Z,16.70
2019-02-27T14:49:07.098Z,16.30
2019-02-27T14:51:48.254Z,16.60
2019-02-27T14:54:29.170Z,16.80
2019-02-27T14:57:10.025Z,16.80
2019-02-27T14:59:51.330Z,16.90
2019-02-27T15:02:31.749Z,16.80
2019-02-27T15:05:12.909Z,16.90
2019-02-27T15:07:54.878Z,16.90
2019-02-27T15:10:40.068Z,17.00
2019-02-27T15:13:18.837Z,17.00
2019-02-27T15:15:59.106Z,17.90
2019-02-27T15:18:39.993Z,17.10
2019-02-27T15:21:20.458Z,16.60
2019-02-27T15:24:01.365Z,16.50
2019-02-27T15:26:45.198Z,16.40
2019-02-27T15:29:25.084Z,17.20
2019-02-27T15:32:05.657Z,16.90
2019-02-27T15:34:47.075Z,16.80
2019-02-27T15:37:27.561Z,16.60
2019-02-27T15:40:08.664Z,17.00
2019-02-27T15:42:49.424Z,17.30
2019-02-27T15:45:30.133Z,16.90
2019-02-27T15:48:10.912Z,16.60
2019-02-27T15:50:54.079Z,16.60
2019-02-27T15:53:33.853Z,16.60
2019-02-27T15:56:02.282Z,16.40
2019-02-27T15:58:50.080Z,16.70
2019-02-27T16:01:38.512Z,16.60
2019-02-27T16:04:27.449Z,16.40
2019-02-27T16:07:15.238Z,16.40
2019-02-27T16:10:06.787Z,16.60
2019-02-27T16:12:53.111Z,16.50
2019-02-27T16:15:41.253Z,16.90
2019-02-27T16:18:29.292Z,16.60
2019-02-27T16:21:11.589Z,16.40
2019-02-27T16:23:52.153Z,16.20
2019-02-27T16:26:33.174Z,16.30
2019-02-27T16:29:13.998Z,16.70
2019-02-27T16:31:54.659Z,16.50
2019-02-27T16:34:35.386Z,16.40
2019-02-27T16:37:03.847Z,16.30
2019-02-27T16:39:51.628Z,16.30
2019-02-27T16:45:41.867Z,16.50
2019-02-27T16:48:31.169Z,16.40
2019-02-27T16:51:19.255Z,16.60
2019-02-27T16:54:07.042Z,16.70
2019-02-27T16:56:54.836Z,16.80
2019-02-27T16:59:45.316Z,16.70
2019-02-27T17:02:32.430Z,16.60
2019-02-27T17:05:20.332Z,16.60
2019-02-27T17:08:08.107Z,16.60
2019-02-27T17:10:56.161Z,16.60
2019-02-27T17:13:43.945Z,16.60
2019-02-27T17:16:31.737Z,16.50
2019-02-27T17:19:19.542Z,16.50
2019-02-27T17:22:07.332Z,16.50
2019-02-27T17:24:55.831Z,16.40
2019-02-27T17:27:49.846Z,16.40
2019-02-27T17:30:37.813Z,16.40
2019-02-27T17:33:24.786Z,16.30
2019-02-27T17:36:05.050Z,16.30
2019-02-27T17:38:49.925Z,16.20
2019-02-27T17:41:28.282Z,16.30
2019-02-27T17:44:09.235Z,16.30
2019-02-27T17:46:54.839Z,16.30
2019-02-27T17:49:35.850Z,16.20
2019-02-27T17:52:16.762Z,16.20
2019-02-27T17:54:57.715Z,16.30
2019-02-27T17:57:37.990Z,16.20
2019-02-27T18:00:20.241Z,16.30
2019-02-27T18:03:00.478Z,16.20
2019-02-27T18:05:41.389Z,16.10
2019-02-27T18:08:22.016Z,16.00
2019-02-27T18:11:03.227Z,16.00
2019-02-27T18:13:43.829Z,16.00
2019-02-27T18:16:27.964Z,15.90
2019-02-27T18:19:08.714Z,15.80
2019-02-27T18:21:49.403Z,15.80
2019-02-27T18:24:33.312Z,15.70
2019-02-27T18:27:12.641Z,15.70
2019-02-27T18:29:53.113Z,15.70
2019-02-27T18:32:34.378Z,15.60
2019-02-27T18:35:15.129Z,15.60
2019-02-27T18:37:55.877Z,15.60
2019-02-27T18:40:36.245Z,15.50
2019-02-27T18:43:17.410Z,15.50
2019-02-27T18:45:58.490Z,15.30
2019-02-27T18:48:43.517Z,15.30
2019-02-27T18:51:22.301Z,15.20
2019-02-27T18:54:03.199Z,15.20
2019-02-27T18:56:44.089Z,15.20
2019-02-27T18:59:29.372Z,15.20
2019-02-27T19:02:07.753Z,15.30
2019-02-27T19:04:48.370Z,15.30
2019-02-27T19:07:28.924Z,15.30
2019-02-27T19:10:09.633Z,15.30
2019-02-27T19:12:50.275Z,15.30
2019-02-27T19:15:29.074Z,15.40
2019-02-27T19:18:16.881Z,15.30
2019-02-27T19:21:04.654Z,15.30
2019-02-27T19:23:45.309Z,15.20
2019-02-27T19:26:26.025Z,15.20
2019-02-27T19:29:06.909Z,15.20
2019-02-27T19:31:48.358Z,15.20
2019-02-27T19:34:30.552Z,15.20
2019-02-27T19:37:11.750Z,15.20
2019-02-27T19:39:53.374Z,15.20
2019-02-27T19:42:35.222Z,15.20
2019-02-27T19:45:16.050Z,15.20
2019-02-27T19:47:56.758Z,15.20
2019-02-27T19:50:37.544Z,15.20
2019-02-27T19:53:18.545Z,15.10
2019-02-27T19:56:01.568Z,15.10
2019-02-27T19:58:41.922Z,15.10
2019-02-27T20:01:22.754Z,15.10
2019-02-27T20:04:09.065Z,15.10
2019-02-27T20:06:46.688Z,15.10
2019-02-27T20:09:27.621Z,15.00
2019-02-27T20:12:09.614Z,15.00
2019-02-27T20:14:50.142Z,15.10
2019-02-27T20:17:32.938Z,15.00
2019-02-27T20:20:13.573Z,14.90
2019-02-27T20:22:54.950Z,14.90
2019-02-27T20:25:35.633Z,14.90
2019-02-27T20:28:16.907Z,14.90
2019-02-27T20:30:57.529Z,15.00
2019-02-27T20:33:38.771Z,14.90
2019-02-27T20:36:19.577Z,14.80
2019-02-27T20:39:00.630Z,14.80
2019-02-27T20:41:43.849Z,14.80
2019-02-27T20:44:23.802Z,14.80
2019-02-27T20:47:05.020Z,14.80
2019-02-27T20:49:46.446Z,14.60
2019-02-27T20:52:28.066Z,14.50
2019-02-27T20:55:09.114Z,14.50
2019-02-27T20:57:39.560Z,14.50
2019-02-27T21:00:27.130Z,14.40
2019-02-27T21:03:14.926Z,14.50
2019-02-27T21:06:03.039Z,14.40
2019-02-27T21:08:50.830Z,14.50
2019-02-27T21:11:38.610Z,14.40
2019-02-27T21:14:27.384Z,14.30
2019-02-27T21:17:19.444Z,14.30
2019-02-27T21:20:26.386Z,14.20
2019-02-27T21:23:14.180Z,14.30
2019-02-27T21:26:01.961Z,14.30
2019-02-27T21:28:58.284Z,14.20
2019-02-27T21:31:39.272Z,14.10
2019-02-27T21:34:27.172Z,14.20
2019-02-27T21:37:16.201Z,14.10
2019-02-27T21:40:25.465Z,14.10
2019-02-27T21:43:13.474Z,14.00
2019-02-27T21:46:01.278Z,14.00
2019-02-27T21:48:49.394Z,14.00
2019-02-27T21:51:37.185Z,13.90
2019-02-27T21:54:25.207Z,13.90
2019-02-27T21:57:12.970Z,14.00
2019-02-27T22:00:00.769Z,13.90
2019-02-27T22:02:41.851Z,13.90
2019-02-27T22:05:22.770Z,14.00
2019-02-27T22:08:05.495Z,14.00
2019-02-27T22:10:46.498Z,14.10
2019-02-27T22:13:30.281Z,14.10
2019-02-27T22:16:10.025Z,14.10
2019-02-27T22:18:50.990Z,13.90
2019-02-27T22:21:34.082Z,13.80
2019-02-27T22:24:14.061Z,13.80
2019-02-27T22:26:54.718Z,14.00
2019-02-27T22:29:35.723Z,14.00
2019-02-27T22:32:16.930Z,13.80
2019-02-27T22:34:59.272Z,14.00
2019-02-27T22:37:40.414Z,14.00
2019-02-27T22:40:21.299Z,14.00
2019-02-27T22:43:02.241Z,14.00
2019-02-27T22:45:44.093Z,14.10
2019-02-27T22:48:27.846Z,13.80
2019-02-27T22:51:07.986Z,13.90
2019-02-27T22:53:48.205Z,13.70
2019-02-27T22:56:29.069Z,13.60
2019-02-27T22:59:10.243Z,13.60
2019-02-27T23:01:51.032Z,13.50
2019-02-27T23:04:31.630Z,13.50
2019-02-27T23:07:12.140Z,13.50
2019-02-27T23:09:53.063Z,13.60
2019-02-27T23:12:33.846Z,13.60
2019-02-27T23:15:15.894Z,13.60
2019-02-27T23:17:56.090Z,13.60
2019-02-27T23:20:37.396Z,13.60
2019-02-27T23:23:06.427Z,13.70
2019-02-27T23:25:54.463Z,13.60
2019-02-27T23:28:42.668Z,13.60
2019-02-27T23:31:31.040Z,13.40
2019-02-27T23:34:19.492Z,13.60
2019-02-27T23:37:08.011Z,13.50
2019-02-27T23:39:56.427Z,13.60
2019-02-27T23:42:44.636Z,13.50
2019-02-27T23:45:33.147Z,13.10
2019-02-27T23:51:16.106Z,13.40
